Time;durP1;ratioP1;P1;durP2;ratioP2;P2;SDS_P1;SDS_P2;PMS_P1;PMS_P2;Temp;Humidity;BMP_temperature;BMP_pressure;BME280_temperature;BME280_humidity;BME280_pressure;Samples;Min_cycle;Max_cycle;Signal;HPM_P1;HPM_P2
2023/01/13 00:00:41;;;;;;;2.97;0.77;;;;;;;7.96;100.00;100002.72;7398681;19;20553;-69
2023/01/13 00:03:09;;;;;;;2.25;0.47;;;;;;;7.96;100.00;99998.38;7398169;19;20086;-69
2023/01/13 00:05:38;;;;;;;1.67;0.68;;;;;;;7.96;100.00;99992.28;7398753;19;20066;-69
2023/01/13 00:08:07;;;;;;;1.52;0.70;;;;;;;7.98;100.00;99993.97;7398606;19;20024;-69
2023/01/13 00:10:36;;;;;;;0.80;0.55;;;;;;;7.98;99.90;99999.19;7396041;19;20015;-69
2023/01/13 00:13:06;;;;;;;3.55;0.88;;;;;;;8.01;100.00;100000.03;7397829;19;20032;-69
2023/01/13 00:15:37;;;;;;;1.17;0.60;;;;;;;8.01;100.00;99998.25;7398853;19;20029;-69
2023/01/13 00:18:06;;;;;;;1.52;0.68;;;;;;;8.02;99.85;99993.91;7398620;19;20024;-69
2023/01/13 00:20:34;;;;;;;0.60;0.50;;;;;;;8.03;99.55;99985.19;7398214;19;20019;-69
2023/01/13 00:23:03;;;;;;;1.05;0.60;;;;;;;8.05;99.50;99985.97;7397054;19;20722;-68
2023/01/13 00:25:31;;;;;;;0.50;0.40;;;;;;;8.05;100.00;99988.59;7395662;19;20476;-69
2023/01/13 00:28:00;;;;;;;1.05;0.57;;;;;;;8.05;99.91;99978.16;7397985;19;20021;-69
2023/01/13 00:30:44;;;;;;;1.25;0.40;;;;;;;8.05;100.00;99978.16;7395095;19;20070;-68
2023/01/13 00:33:12;;;;;;;0.35;0.35;;;;;;;8.05;99.94;99970.31;7396155;19;20022;-68
2023/01/13 00:35:41;;;;;;;1.13;0.50;;;;;;;8.03;99.16;99972.13;7395844;19;20086;-68
2023/01/13 00:38:09;;;;;;;0.90;0.60;;;;;;;8.04;99.14;99972.06;7397744;19;20102;-68
2023/01/13 00:40:38;;;;;;;1.67;0.50;;;;;;;8.04;99.04;99973.81;7397430;19;20436;-69
2023/01/13 00:45:50;;;;;;;0.80;0.50;;;;;;;8.05;99.58;99965.09;7397936;19;20022;-69
2023/01/13 00:48:18;;;;;;;0.98;0.50;;;;;;;8.05;98.96;99968.56;7397022;19;20489;-69
2023/01/13 00:50:47;;;;;;;0.75;0.30;;;;;;;8.06;98.76;99972.91;7395070;19;20545;-74
2023/01/13 00:53:16;;;;;;;0.73;0.50;;;;;;;8.05;98.61;99958.13;7396408;19;20086;-73
2023/01/13 00:55:44;;;;;;;0.77;0.55;;;;;;;8.08;97.62;99971.09;7397424;19;20022;-74
2023/01/13 00:58:13;;;;;;;1.42;0.40;;;;;;;8.10;98.61;99964.09;7396476;19;20018;-73
2023/01/13 01:00:41;;;;;;;1.05;0.50;;;;;;;8.12;98.27;99972.72;7397037;19;20082;-74
2023/01/13 01:03:12;;;;;;;1.92;0.50;;;;;;;8.12;98.48;99964.06;7396217;19;20086;-73
2023/01/13 01:05:41;;;;;;;1.48;0.50;;;;;;;8.15;98.35;99972.69;7397253;19;20077;-74
2023/01/13 01:08:10;;;;;;;1.10;0.50;;;;;;;8.17;98.19;99966.56;7396267;19;20514;-74
2023/01/13 01:10:38;;;;;;;0.52;0.32;;;;;;;8.17;97.83;99970.03;7394708;19;20074;-74
2023/01/13 01:13:06;;;;;;;1.02;0.52;;;;;;;8.18;97.91;99968.28;7396075;19;20441;-73
2023/01/13 01:15:35;;;;;;;0.55;0.40;;;;;;;8.20;98.03;99969.09;7396475;19;20078;-74
2023/01/13 01:18:03;;;;;;;0.40;0.30;;;;;;;8.20;96.89;99966.47;7396438;19;20082;-73
2023/01/13 01:20:34;;;;;;;0.68;0.32;;;;;;;8.22;98.39;99968.16;7395971;19;20086;-73
2023/01/13 01:23:03;;;;;;;0.70;0.50;;;;;;;8.25;97.99;99975.06;7396049;19;20098;-73
2023/01/13 01:25:31;;;;;;;1.38;0.63;;;;;;;8.26;98.47;99963.72;7396151;19;20025;-73
2023/01/13 01:28:00;;;;;;;0.38;0.38;;;;;;;8.27;98.08;99966.28;7395590;19;20014;-74
2023/01/13 01:30:28;;;;;;;0.50;0.30;;;;;;;8.29;97.73;99974.06;7394610;19;20034;-73
2023/01/13 01:32:57;;;;;;;0.40;0.35;;;;;;;8.30;96.95;99962.72;7394051;19;20026;-73
2023/01/13 01:35:25;;;;;;;0.90;0.55;;;;;;;8.31;97.13;99962.72;7395571;19;20552;-73
2023/01/13 01:37:56;;;;;;;1.40;0.60;;;;;;;8.32;96.51;99963.56;7394833;19;20086;-73
2023/01/13 01:40:25;;;;;;;0.70;0.32;;;;;;;8.34;96.35;99953.94;7394326;19;20435;-73
2023/01/13 01:45:34;;;;;;;1.60;0.40;;;;;;;8.38;96.15;99957.31;7395762;19;20082;-73
2023/01/13 01:48:05;;;;;;;0.43;0.40;;;;;;;8.37;96.36;99953.00;7395522;19;20025;-73
2023/01/13 01:50:35;;;;;;;0.68;0.40;;;;;;;8.41;96.13;99952.03;7394232;19;20018;-73
2023/01/13 01:53:12;;;;;;;0.28;0.28;;;;;;;8.41;96.25;99947.63;7394823;19;20082;-74
2023/01/13 01:55:41;;;;;;;0.68;0.38;;;;;;;8.43;95.41;99940.63;7394963;19;20074;-73
2023/01/13 01:58:15;;;;;;;1.15;0.28;;;;;;;8.44;96.51;99950.19;7395269;19;20025;-73
2023/01/13 02:00:43;;;;;;;0.90;0.40;;;;;;;8.44;94.31;99942.34;7395426;19;20549;-73
2023/01/13 02:03:13;;;;;;;0.68;0.47;;;;;;;8.47;95.63;99947.50;7396504;19;20086;-73
2023/01/13 02:05:41;;;;;;;0.50;0.40;;;;;;;8.47;93.84;99931.84;7395333;19;20018;-73
2023/01/13 02:08:14;;;;;;;0.40;0.30;;;;;;;8.49;94.86;99929.16;7395660;19;20426;-73
2023/01/13 02:10:47;;;;;;;1.90;0.50;;;;;;;8.50;95.51;99943.97;7393178;19;20086;-73
2023/01/13 02:13:13;;;;;;;0.57;0.30;;;;;;;8.52;94.53;99931.72;7394477;19;20086;-72
2023/01/13 02:15:50;;;;;;;0.40;0.30;;;;;;;8.52;92.75;99928.22;7394828;19;20026;-73
2023/01/13 02:18:42;;;;;;;0.43;0.30;;;;;;;8.54;93.80;99934.28;7394330;19;20014;-73
2023/01/13 02:21:37;;;;;;;0.73;0.20;;;;;;;8.54;93.38;99926.44;7394344;19;20089;-73
2023/01/13 02:24:53;;;;;;;0.90;0.40;;;;;;;8.54;92.04;99927.28;7392863;19;20510;-73
2023/01/13 02:27:54;;;;;;;1.10;0.40;;;;;;;8.53;91.29;99924.72;7394137;19;20010;-73
2023/01/13 02:33:58;;;;;;;1.65;0.45;;;;;;;8.56;93.51;99919.44;7393283;19;20018;-74
2023/01/13 02:36:33;;;;;;;0.50;0.20;;;;;;;8.56;91.88;99927.28;7393849;19;20073;-73
2023/01/13 02:39:07;;;;;;;0.68;0.40;;;;;;;8.56;93.66;99915.03;7394288;19;20015;-72
2023/01/13 02:44:27;;;;;;;0.95;0.20;;;;;;;8.57;94.05;99922.00;7392573;19;20014;-73
2023/01/13 02:47:01;;;;;;;1.70;0.30;;;;;;;8.57;93.31;99923.75;7392382;19;20074;-73
2023/01/13 02:49:35;;;;;;;0.47;0.28;;;;;;;8.52;92.43;99913.41;7396767;19;20021;-75
2023/01/13 02:52:10;;;;;;;0.35;0.30;;;;;;;8.57;92.81;99919.38;7398263;19;20082;-73
2023/01/13 02:54:41;;;;;;;0.40;0.30;;;;;;;8.57;93.12;99921.16;7398434;19;20022;-74
2023/01/13 02:57:11;;;;;;;0.55;0.55;;;;;;;8.56;91.22;99915.03;7401318;19;20025;-73
2023/01/13 02:59:43;;;;;;;0.90;0.30;;;;;;;8.54;92.57;99911.59;7401425;19;20031;-73
2023/01/13 03:02:18;;;;;;;0.47;0.35;;;;;;;8.58;93.11;99921.09;7401428;19;20023;-73
2023/01/13 03:04:52;;;;;;;0.82;0.50;;;;;;;8.58;93.46;99913.25;7397821;19;20364;-73
2023/01/13 03:07:46;;;;;;;2.47;1.30;;;;;;;8.59;92.52;99921.94;7401078;19;20019;-72
2023/01/13 03:10:27;;;;;;;2.13;0.30;;;;;;;8.58;92.39;99915.00;7399540;19;20029;-72
2023/01/13 03:13:05;;;;;;;0.50;0.20;;;;;;;8.57;91.59;99915.94;7399972;19;20437;-73
2023/01/13 03:15:44;;;;;;;1.17;0.30;;;;;;;8.57;93.08;99906.31;7401021;19;20021;-73
2023/01/13 03:18:27;;;;;;;0.30;0.28;;;;;;;8.57;93.43;99913.31;7402325;19;20433;-74
2023/01/13 03:21:06;;;;;;;0.43;0.30;;;;;;;8.55;92.26;99909.88;7401505;19;20062;-73
2023/01/13 03:23:39;;;;;;;0.20;0.20;;;;;;;8.54;92.23;99918.59;7399423;19;20472;-73
2023/01/13 03:26:12;;;;;;;0.43;0.22;;;;;;;8.53;92.50;99914.25;7399736;19;20553;-72
2023/01/13 03:28:45;;;;;;;0.85;0.22;;;;;;;8.50;92.69;99912.59;7399690;19;20027;-74
2023/01/13 03:31:20;;;;;;;0.30;0.20;;;;;;;8.53;92.40;99909.03;7397881;19;20949;-73
2023/01/13 03:33:56;;;;;;;0.75;0.28;;;;;;;8.51;92.38;99908.25;7396807;19;20549;-73
2023/01/13 03:36:29;;;;;;;1.08;0.30;;;;;;;8.52;92.68;99913.41;7400163;19;20018;-73
2023/01/13 03:39:01;;;;;;;0.35;0.30;;;;;;;8.46;92.26;99903.13;7400220;19;20384;-73
2023/01/13 03:41:36;;;;;;;0.17;0.17;;;;;;;8.50;92.97;99909.97;7399699;19;20014;-73
2023/01/13 03:44:22;;;;;;;0.20;0.20;;;;;;;8.49;92.79;99897.81;7398043;19;20018;-73
2023/01/13 03:46:59;;;;;;;0.73;0.30;;;;;;;8.47;91.92;99894.38;7399937;19;20031;-72
2023/01/13 03:49:36;;;;;;;2.58;0.40;;;;;;;8.45;92.50;99896.16;7397293;19;20530;-73
2023/01/13 03:52:10;;;;;;;0.32;0.20;;;;;;;8.42;91.75;99904.09;7399421;19;20422;-72
2023/01/13 03:54:46;;;;;;;0.50;0.40;;;;;;;8.40;92.55;99900.63;7397167;19;20090;-72
2023/01/13 03:57:19;;;;;;;0.43;0.40;;;;;;;8.39;92.70;99905.03;7398783;19;20070;-72
2023/01/13 03:59:52;;;;;;;0.35;0.30;;;;;;;8.38;92.21;99894.56;7399035;19;20094;-72
2023/01/13 04:02:31;;;;;;;0.80;0.30;;;;;;;8.36;91.34;99886.78;7399437;19;20177;-72
2023/01/13 04:05:05;;;;;;;0.50;0.40;;;;;;;8.35;92.78;99885.06;7399245;19;20092;-73
2023/01/13 04:07:44;;;;;;;1.65;0.50;;;;;;;8.34;92.63;99886.00;7398860;19;20019;-72
2023/01/13 04:10:15;;;;;;;0.85;0.55;;;;;;;8.32;92.60;99888.63;7398059;19;20078;-73
2023/01/13 04:13:04;;;;;;;1.00;0.30;;;;;;;8.31;92.50;99892.16;7398963;19;20089;-72
2023/01/13 04:15:36;;;;;;;0.60;0.28;;;;;;;8.30;91.87;99898.28;7397851;19;20027;-72
2023/01/13 04:18:15;;;;;;;0.75;0.43;;;;;;;8.30;92.30;99890.44;7397971;19;20070;-72
2023/01/13 04:20:49;;;;;;;0.38;0.22;;;;;;;8.29;91.76;99893.06;7398575;19;20127;-72
2023/01/13 04:23:18;;;;;;;1.40;0.30;;;;;;;8.30;91.94;99894.78;7396391;19;20425;-73
2023/01/13 04:25:47;;;;;;;0.40;0.30;;;;;;;8.30;92.16;99893.03;7397977;19;20090;-73
2023/01/13 04:28:17;;;;;;;0.30;0.20;;;;;;;8.29;91.93;99891.31;7395631;19;20070;-72
2023/01/13 04:30:46;;;;;;;0.30;0.20;;;;;;;8.30;92.34;99892.16;7396912;19;20018;-72
2023/01/13 04:33:16;;;;;;;0.68;0.40;;;;;;;8.30;90.49;99889.56;7396081;19;20514;-73
2023/01/13 04:35:48;;;;;;;0.40;0.30;;;;;;;8.30;91.90;99893.03;7397266;19;20090;-72
2023/01/13 04:38:19;;;;;;;0.35;0.17;;;;;;;8.32;91.52;99880.78;7397098;19;20441;-72
2023/01/13 04:40:48;;;;;;;0.50;0.30;;;;;;;8.34;91.80;99883.38;7395277;19;20086;-72
2023/01/13 04:43:17;;;;;;;1.85;0.30;;;;;;;8.34;92.02;99879.88;7396212;19;20078;-73
2023/01/13 04:45:45;;;;;;;0.65;0.20;;;;;;;8.36;92.13;99873.72;7397282;19;20022;-73
2023/01/13 04:48:14;;;;;;;1.52;0.30;;;;;;;8.39;92.00;99883.22;7397608;19;20031;-72
2023/01/13 04:50:43;;;;;;;2.25;0.30;;;;;;;8.40;92.10;99882.34;7396585;19;20078;-73
2023/01/13 04:53:14;;;;;;;1.80;0.40;;;;;;;8.40;92.59;99877.09;7396031;19;20407;-72
2023/01/13 04:55:43;;;;;;;1.40;0.35;;;;;;;8.40;92.02;99877.09;7396365;19;20038;-72
2023/01/13 04:58:12;;;;;;;0.57;0.40;;;;;;;8.38;92.28;99879.78;7396599;19;20045;-72
2023/01/13 05:00:41;;;;;;;4.95;1.50;;;;;;;8.38;92.17;99882.38;7396436;19;20481;-72
2023/01/13 05:03:09;;;;;;;0.93;0.40;;;;;;;8.39;92.23;99889.34;7396084;19;20078;-72
2023/01/13 05:05:38;;;;;;;0.80;0.43;;;;;;;8.39;91.94;99880.63;7396243;19;20568;-72
2023/01/13 05:08:07;;;;;;;1.13;0.57;;;;;;;8.39;92.00;99891.06;7394881;19;20082;-72
2023/01/13 05:10:39;;;;;;;1.83;0.70;;;;;;;8.36;91.35;99883.31;7395444;19;20018;-72
2023/01/13 05:18:31;;;;;;;0.93;0.40;;;;;;;8.38;91.82;99899.81;7396404;19;20011;-71
2023/01/13 05:20:59;;;;;;;0.50;0.30;;;;;;;8.38;91.80;99902.41;7396649;19;20074;-72
2023/01/13 05:26:12;;;;;;;0.50;0.32;;;;;;;8.35;92.20;99900.75;7396161;19;20030;-72
2023/01/13 05:28:40;;;;;;;1.65;0.28;;;;;;;8.35;92.08;99916.44;7396499;19;20078;-73
2023/01/13 05:31:10;;;;;;;0.75;0.40;;;;;;;8.35;92.03;99915.59;7394401;19;20077;-72
2023/01/13 05:33:39;;;;;;;0.55;0.30;;;;;;;8.32;92.11;99922.59;7394479;19;20078;-72
2023/01/13 05:36:08;;;;;;;1.55;0.40;;;;;;;8.35;92.87;99929.50;7395955;19;20095;-73
2023/01/13 05:38:36;;;;;;;1.20;0.40;;;;;;;8.36;91.83;99927.75;7395082;19;20078;-72
2023/01/13 05:43:54;;;;;;;1.00;0.43;;;;;;;8.34;89.36;99909.50;7391499;19;20042;-73
2023/01/13 05:46:22;;;;;;;0.50;0.40;;;;;;;8.36;88.89;99910.31;7396066;19;20066;-72
2023/01/13 05:48:51;;;;;;;0.30;0.30;;;;;;;8.39;90.98;99911.97;7395570;19;20447;-73
2023/01/13 05:51:24;;;;;;;1.75;0.40;;;;;;;8.38;90.85;99911.13;7393182;19;20490;-72
2023/01/13 05:53:53;;;;;;;1.10;0.35;;;;;;;8.39;91.71;99922.44;7394060;19;20021;-71
2023/01/13 05:56:21;;;;;;;0.10;0.10;;;;;;;8.38;92.43;99925.94;7394803;19;20023;-73
2023/01/13 05:58:50;;;;;;;0.70;0.52;;;;;;;8.35;92.64;99918.19;7394039;19;20063;-72
2023/01/13 06:01:21;;;;;;;1.13;0.20;;;;;;;8.37;92.98;99924.25;7393910;19;20059;-72
2023/01/13 06:03:49;;;;;;;1.00;0.40;;;;;;;8.38;92.78;99924.22;7393263;19;20011;-72
2023/01/13 06:06:18;;;;;;;0.98;0.30;;;;;;;8.37;92.92;99929.47;7392336;19;20039;-72
2023/01/13 06:08:46;;;;;;;0.38;0.28;;;;;;;8.39;92.04;99935.50;7393280;19;20082;-71
2023/01/13 06:11:15;;;;;;;0.55;0.20;;;;;;;8.42;90.82;99923.22;7392333;19;20074;-73
2023/01/13 06:13:43;;;;;;;0.75;0.40;;;;;;;8.46;91.55;99918.81;7394759;19;20074;-73
2023/01/13 06:16:12;;;;;;;0.50;0.38;;;;;;;8.49;91.05;99931.78;7392923;19;20508;-73
2023/01/13 06:18:43;;;;;;;1.02;0.43;;;;;;;8.52;91.21;99944.78;7394212;19;20040;-72
2023/01/13 06:21:11;;;;;;;0.93;0.40;;;;;;;8.55;92.82;99943.84;7393628;19;20018;-71
2023/01/13 06:23:40;;;;;;;1.05;0.47;;;;;;;8.57;93.43;99947.31;7391862;19;20019;-73
2023/01/13 06:26:15;;;;;;;1.73;0.38;;;;;;;8.58;93.56;99952.47;7400449;19;20177;-72
2023/01/13 06:28:43;;;;;;;0.30;0.30;;;;;;;8.56;93.90;99951.66;7401477;19;20018;-72
2023/01/13 06:31:12;;;;;;;1.30;0.40;;;;;;;8.57;94.76;99955.16;7398718;19;20467;-73
2023/01/13 06:33:50;;;;;;;2.28;0.40;;;;;;;8.53;94.61;99962.19;7397791;19;20510;-73
2023/01/13 06:36:23;;;;;;;0.45;0.30;;;;;;;8.53;94.74;99966.56;7401445;19;20432;-73
2023/01/13 06:38:56;;;;;;;0.63;0.40;;;;;;;8.47;94.95;99968.44;7401474;19;20018;-73
2023/01/13 06:43:13;;;;;;;1.67;0.32;;;;;;;8.42;94.53;99948.50;7402668;19;20077;-72
2023/01/13 06:44:23;;;;;;;3.60;0.82;;;;;;;8.36;94.05;99974.81;7398698;19;20014;-73
2023/01/13 06:46:53;;;;;;;0.47;0.38;;;;;;;8.33;95.09;99975.75;7402380;19;20010;-74
2023/01/13 06:49:24;;;;;;;1.05;0.40;;;;;;;8.28;95.21;99986.31;7401065;19;20018;-73
2023/01/13 06:51:52;;;;;;;1.38;0.40;;;;;;;8.20;95.49;99998.72;7398810;19;20015;-73
2023/01/13 06:54:21;;;;;;;0.98;0.20;;;;;;;8.13;96.33;99984.91;7399379;19;20094;-75
2023/01/13 06:56:49;;;;;;;0.65;0.25;;;;;;;8.06;96.87;100000.78;7400684;19;20031;-74
2023/01/13 06:59:25;;;;;;;1.25;0.30;;;;;;;7.97;97.48;99989.66;7400800;19;20392;-74
2023/01/13 07:01:53;;;;;;;0.80;0.40;;;;;;;7.87;98.06;99982.91;7401387;19;20105;-75
2023/01/13 07:04:24;;;;;;;1.25;0.30;;;;;;;7.82;98.25;99979.53;7401831;19;20074;-75
2023/01/13 07:06:54;;;;;;;0.30;0.30;;;;;;;7.77;98.68;99973.56;7409113;19;20046;-74
2023/01/13 07:09:22;;;;;;;0.85;0.22;;;;;;;7.72;99.18;99968.47;7409510;19;20438;-74
2023/01/13 07:11:51;;;;;;;2.30;0.50;;;;;;;7.68;99.52;99955.50;7398456;19;20085;-74
2023/01/13 07:17:01;;;;;;;2.00;0.40;;;;;;;7.62;100.00;99959.97;7399898;19;20019;-74
2023/01/13 07:19:38;;;;;;;2.78;0.75;;;;;;;7.61;100.00;99958.25;7397039;19;20421;-74
2023/01/13 07:22:07;;;;;;;1.90;0.70;;;;;;;7.59;100.00;99957.41;7399381;19;20019;-74
2023/01/13 07:24:35;;;;;;;2.80;0.60;;;;;;;7.59;100.00;99940.91;7397189;19;20078;-73
2023/01/13 07:27:04;;;;;;;2.45;0.98;;;;;;;7.59;100.00;99938.28;7399202;19;20018;-74
2023/01/13 07:29:32;;;;;;;2.03;1.20;;;;;;;7.57;100.00;99943.56;7399724;19;20028;-74
2023/01/13 07:32:01;;;;;;;2.08;1.15;;;;;;;7.57;100.00;99940.94;7397799;19;20023;-74
2023/01/13 07:34:29;;;;;;;1.58;1.00;;;;;;;7.56;100.00;99941.81;7397302;19;20014;-75
2023/01/13 07:37:00;;;;;;;1.88;0.85;;;;;;;7.54;100.00;99934.91;7398880;19;20502;-74
2023/01/13 07:39:29;;;;;;;1.50;0.68;;;;;;;7.55;100.00;99940.09;7399036;19;20417;-74
2023/01/13 07:44:38;;;;;;;3.72;1.30;;;;;;;7.54;100.00;99956.66;7397416;19;20023;-74
2023/01/13 07:47:09;;;;;;;2.75;1.20;;;;;;;7.54;100.00;99947.97;7399263;19;20035;-74
2023/01/13 07:49:37;;;;;;;1.52;0.65;;;;;;;7.53;100.00;99941.88;7399931;19;20011;-74
2023/01/13 07:52:09;;;;;;;1.40;0.55;;;;;;;7.52;100.00;99962.81;7397606;19;20085;-73
2023/01/13 07:54:37;;;;;;;3.63;0.70;;;;;;;7.50;100.00;99976.75;7396732;19;20077;-74
2023/01/13 07:57:06;;;;;;;3.42;0.40;;;;;;;7.49;100.00;99993.31;7398612;19;20031;-74
2023/01/13 07:59:34;;;;;;;0.43;0.40;;;;;;;7.49;100.00;100002.88;7398327;19;20549;-74
2023/01/13 08:02:03;;;;;;;1.15;0.50;;;;;;;7.48;100.00;99994.19;7398503;19;20081;-75
2023/01/13 08:04:31;;;;;;;0.80;0.50;;;;;;;7.48;100.00;99988.97;7396166;19;20018;-74
2023/01/13 08:06:59;;;;;;;1.27;0.50;;;;;;;7.48;100.00;99990.72;7398069;19;20028;-74
2023/01/13 08:09:30;;;;;;;1.85;0.50;;;;;;;7.44;100.00;99989.94;7398246;19;20019;-73
2023/01/13 08:14:40;;;;;;;1.48;0.50;;;;;;;7.45;100.00;99996.84;7394883;19;20018;-73
2023/01/13 08:17:09;;;;;;;0.63;0.50;;;;;;;7.47;100.00;100007.28;7398159;19;20086;-73
2023/01/13 08:19:37;;;;;;;2.78;0.50;;;;;;;7.48;100.00;99998.53;7398943;19;20085;-73
2023/01/13 08:22:06;;;;;;;1.13;0.50;;;;;;;7.48;100.00;99999.41;7398192;19;20018;-76
2023/01/13 08:24:37;;;;;;;1.95;0.40;;;;;;;7.45;100.00;100006.44;7395660;19;20031;-74
2023/01/13 08:27:05;;;;;;;3.00;0.47;;;;;;;7.51;100.00;100003.72;7398274;19;20078;-73
2023/01/13 08:29:34;;;;;;;0.60;0.40;;;;;;;7.52;100.00;100023.72;7397491;19;20094;-73
2023/01/13 08:32:02;;;;;;;1.05;0.60;;;;;;;7.52;100.00;100026.31;7395790;19;20569;-73
2023/01/13 08:34:31;;;;;;;1.08;0.50;;;;;;;7.52;100.00;100021.09;7395768;19;20015;-73
2023/01/13 08:36:59;;;;;;;1.30;0.50;;;;;;;7.50;99.97;100036.78;7397391;19;20031;-73
2023/01/13 08:39:28;;;;;;;0.98;0.65;;;;;;;7.50;99.42;100054.19;7396499;19;20081;-73
2023/01/13 08:41:59;;;;;;;0.85;0.60;;;;;;;7.50;99.65;100047.22;7397030;19;20086;-73
2023/01/13 08:44:29;;;;;;;1.17;0.50;;;;;;;7.51;100.00;100037.66;7394738;19;20581;-73
2023/01/13 08:46:58;;;;;;;1.20;0.50;;;;;;;7.52;99.63;100035.88;7394236;19;20019;-72
2023/01/13 08:49:27;;;;;;;1.25;0.50;;;;;;;7.52;99.80;100022.84;7394537;19;20513;-72
2023/01/13 08:51:56;;;;;;;1.20;0.40;;;;;;;7.50;99.11;100020.25;7395104;19;20462;-73
2023/01/13 08:54:24;;;;;;;1.23;0.60;;;;;;;7.52;99.58;100034.16;7394585;19;20045;-72
2023/01/13 08:56:53;;;;;;;0.60;0.32;;;;;;;7.54;100.00;100027.13;7396327;19;20069;-72
2023/01/13 08:59:24;;;;;;;1.95;0.60;;;;;;;7.49;100.00;99997.66;7395962;19;20085;-75
2023/01/13 09:01:52;;;;;;;3.47;1.90;;;;;;;7.53;100.00;99959.31;7397114;19;20415;-74
2023/01/13 09:04:24;;;;;;;4.80;2.40;;;;;;;7.52;100.00;99984.56;7394953;19;20032;-74
2023/01/13 09:06:53;;;;;;;3.40;1.10;;;;;;;7.51;100.00;100011.53;7397274;19;20022;-75
2023/01/13 09:09:24;;;;;;;2.58;0.70;;;;;;;7.49;100.00;100028.97;7396444;19;20014;-73
2023/01/13 09:14:39;;;;;;;2.67;0.95;;;;;;;7.41;99.34;99986.53;7395576;19;20018;-72
2023/01/13 09:17:08;;;;;;;1.60;1.45;;;;;;;7.38;100.00;99979.63;7397469;19;20018;-73
2023/01/13 09:19:37;;;;;;;5.68;3.33;;;;;;;7.37;99.69;100000.50;7396199;19;20477;-73
2023/01/13 09:22:06;;;;;;;6.07;3.10;;;;;;;7.34;99.60;99994.50;7395943;19;20028;-73
2023/01/13 09:24:34;;;;;;;7.43;5.28;;;;;;;7.33;99.99;99992.75;7394748;19;20078;-76
2023/01/13 09:27:03;;;;;;;9.35;5.63;;;;;;;7.32;100.00;99996.25;7395172;19;20081;-73
2023/01/13 09:29:31;;;;;;;6.57;3.80;;;;;;;7.33;99.26;100010.19;7395341;19;20538;-74
2023/01/13 09:32:02;;;;;;;4.80;1.80;;;;;;;7.29;98.82;100004.16;7393567;19;20090;-73
2023/01/13 09:37:12;;;;;;;4.07;1.77;;;;;;;7.25;97.59;100006.84;7395735;19;20042;-73
2023/01/13 09:39:41;;;;;;;1.88;1.67;;;;;;;7.26;98.04;100008.56;7395402;19;20019;-73
2023/01/13 09:45:05;;;;;;;5.22;0.88;;;;;;;7.22;96.25;100041.69;7395584;19;20493;-68
2023/01/13 09:47:42;;;;;;;1.40;1.30;;;;;;;7.21;95.78;100032.13;7395780;19;20014;-68
2023/01/13 09:50:26;;;;;;;3.58;1.73;;;;;;;7.22;96.10;100041.69;7395801;19;20011;-72
2023/01/13 09:52:55;;;;;;;3.85;1.77;;;;;;;7.21;97.67;100037.34;7394348;19;20018;-72
2023/01/13 09:55:31;;;;;;;3.13;1.10;;;;;;;7.21;97.31;100044.34;7395082;19;20099;-72
2023/01/13 09:58:00;;;;;;;1.33;0.80;;;;;;;7.20;97.48;100037.38;7394700;19;20018;-72
2023/01/13 10:00:36;;;;;;;1.85;0.80;;;;;;;7.18;95.96;100034.81;7397097;19;20022;-71
2023/01/13 10:03:22;;;;;;;4.78;1.77;;;;;;;7.20;96.57;100037.38;7394125;19;20022;-69
2023/01/13 10:05:57;;;;;;;2.10;0.80;;;;;;;7.18;96.29;100027.00;7396094;19;20007;-68
2023/01/13 10:08:29;;;;;;;4.43;0.70;;;;;;;7.17;97.09;100018.28;7392984;19;20018;-69
2023/01/13 10:13:12;;;;;;;3.33;1.58;;;;;;;7.20;97.38;100013.91;7392323;19;20083;-69
2023/01/13 10:13:48;;;;;;;2.05;0.52;;;;;;;7.20;97.67;100021.75;7391363;19;20021;-70
2023/01/13 10:16:27;;;;;;;3.70;1.13;;;;;;;7.19;97.18;100023.50;7394080;19;20423;-71
2023/01/13 10:19:06;;;;;;;2.63;0.60;;;;;;;7.20;96.86;100019.13;7394038;19;20421;-69
2023/01/13 10:22:14;;;;;;;2.63;0.60;;;;;;;7.18;93.91;100024.38;7394307;19;20018;-71
2023/01/13 10:25:05;;;;;;;1.75;0.65;;;;;;;7.21;94.66;100033.91;7391465;19;20443;-69
2023/01/13 10:27:36;;;;;;;3.95;0.80;;;;;;;7.21;95.47;100018.25;7394385;19;20011;-68
2023/01/13 10:30:19;;;;;;;2.28;0.80;;;;;;;7.25;96.07;100025.13;7393258;19;20362;-67
2023/01/13 10:32:52;;;;;;;2.13;0.63;;;;;;;7.31;96.16;100027.59;7391164;19;20034;-67
2023/01/13 10:35:50;;;;;;;3.80;1.00;;;;;;;7.37;95.23;100034.44;7393658;19;20015;-70
2023/01/13 10:38:21;;;;;;;1.60;1.25;;;;;;;7.41;95.90;100028.28;7394437;19;20019;-72
2023/01/13 10:40:51;;;;;;;1.77;1.17;;;;;;;7.44;93.38;100039.53;7393865;19;20422;-69
2023/01/13 10:43:20;;;;;;;7.45;2.10;;;;;;;7.44;91.41;100038.66;7392874;19;20014;-70
2023/01/13 10:45:57;;;;;;;2.08;0.93;;;;;;;7.44;93.93;100044.75;7393142;19;20026;-69
2023/01/13 10:48:35;;;;;;;2.67;0.90;;;;;;;7.45;93.36;100045.59;7392832;19;20379;-69
2023/01/13 10:51:22;;;;;;;2.35;0.82;;;;;;;7.41;91.70;100044.78;7394018;19;20082;-71
2023/01/13 10:54:00;;;;;;;2.30;0.60;;;;;;;7.39;92.76;100046.56;7391048;19;20433;-69
2023/01/13 10:56:31;;;;;;;2.55;0.60;;;;;;;7.36;93.45;100040.56;7393421;19;20074;-68
2023/01/13 10:59:18;;;;;;;1.38;0.60;;;;;;;7.31;92.56;100046.72;7392424;19;20074;-70
2023/01/13 11:02:00;;;;;;;3.45;0.80;;;;;;;7.28;92.56;100044.19;7391140;19;20086;-70
2023/01/13 11:04:34;;;;;;;1.88;0.70;;;;;;;7.25;92.25;100048.59;7390489;19;20040;-70
2023/01/13 11:07:17;;;;;;;2.22;0.52;;;;;;;7.23;91.80;100040.81;7392301;19;20018;-70
2023/01/13 11:09:46;;;;;;;0.98;0.50;;;;;;;7.23;92.94;100040.81;7392929;19;20101;-70
2023/01/13 11:12:32;;;;;;;1.45;0.55;;;;;;;7.23;90.45;100045.16;7398947;19;20439;-69
2023/01/13 11:15:03;;;;;;;0.95;0.45;;;;;;;7.25;91.83;100046.00;7396779;19;20035;-70
2023/01/13 11:17:40;;;;;;;3.25;0.73;;;;;;;7.27;90.51;100052.06;7398797;19;20518;-69
2023/01/13 11:20:19;;;;;;;3.25;0.57;;;;;;;7.29;90.01;100055.47;7399830;19;20078;-68
2023/01/13 11:22:54;;;;;;;2.65;0.80;;;;;;;7.32;91.33;100045.84;7398699;19;20435;-68
2023/01/13 11:25:32;;;;;;;1.10;0.60;;;;;;;7.36;91.61;100048.41;7399831;19;20018;-69
2023/01/13 11:28:06;;;;;;;1.58;0.60;;;;;;;7.38;90.54;100046.59;7400278;19;20034;-70
2023/01/13 11:30:42;;;;;;;4.95;0.93;;;;;;;7.41;90.20;100051.78;7397209;19;20089;-69
2023/01/13 11:33:29;;;;;;;1.92;0.65;;;;;;;7.43;89.73;100044.75;7397442;19;20018;-71
2023/01/13 11:36:06;;;;;;;1.55;0.75;;;;;;;7.46;88.11;100055.16;7400252;19;20032;-70
2023/01/13 11:38:52;;;;;;;2.17;0.57;;;;;;;7.50;87.19;100056.81;7401246;19;20078;-69
2023/01/13 11:41:33;;;;;;;2.55;0.50;;;;;;;7.52;85.25;100028.94;7399735;19;20018;-70
2023/01/13 11:44:14;;;;;;;1.85;0.47;;;;;;;7.56;87.47;100061.91;7397261;19;20489;-69
2023/01/13 11:46:43;;;;;;;1.77;0.60;;;;;;;7.58;85.82;100060.13;7398929;19;20034;-70
2023/01/13 11:49:20;;;;;;;3.97;0.80;;;;;;;7.62;85.42;100059.19;7399228;19;20082;-70
2023/01/13 11:51:55;;;;;;;4.53;0.75;;;;;;;7.65;86.74;100061.72;7398890;19;20081;-69
2023/01/13 11:54:48;;;;;;;3.42;0.65;;;;;;;7.71;85.38;100065.09;7396469;19;20393;-69
2023/01/13 11:57:33;;;;;;;3.53;1.73;;;;;;;7.75;86.43;100066.75;7398621;19;20031;-68
2023/01/13 12:00:19;;;;;;;4.45;1.17;;;;;;;7.80;86.56;100051.84;7396493;19;20023;-70
2023/01/13 12:02:58;;;;;;;3.22;0.65;;;;;;;7.82;83.84;100063.09;7398206;19;20134;-70
2023/01/13 12:05:35;;;;;;;2.28;0.60;;;;;;;7.87;83.79;100063.88;7395768;19;20014;-69
2023/01/13 12:08:19;;;;;;;2.17;0.68;;;;;;;7.91;81.18;100062.94;7397774;19;20019;-69
2023/01/13 12:11:04;;;;;;;3.97;1.35;;;;;;;7.96;81.02;100066.28;7397826;19;20030;-69
2023/01/13 12:13:44;;;;;;;6.47;1.20;;;;;;;8.00;82.89;100072.31;7396182;19;20022;-69
2023/01/13 12:16:25;;;;;;;3.70;0.73;;;;;;;8.04;79.24;100058.28;7398204;19;20074;-71
2023/01/13 12:19:12;;;;;;;2.85;0.93;;;;;;;8.08;83.02;100062.53;7398155;19;20021;-70
2023/01/13 12:21:58;;;;;;;4.05;0.82;;;;;;;8.10;80.14;100066.00;7395424;19;20038;-68
2023/01/13 12:24:32;;;;;;;2.80;0.98;;;;;;;8.14;80.94;100057.19;7394790;19;20082;-70
2023/01/13 12:27:11;;;;;;;5.75;0.90;;;;;;;8.17;76.36;100065.84;7397602;19;20388;-70
2023/01/13 12:29:40;;;;;;;6.05;0.90;;;;;;;8.23;81.56;100055.25;7397426;19;20014;-69
2023/01/13 12:32:14;;;;;;;6.97;1.08;;;;;;;8.24;76.03;100064.78;7396733;19;20086;-69
2023/01/13 12:34:54;;;;;;;3.78;0.55;;;;;;;8.27;76.84;100057.75;7395026;19;20014;-71
2023/01/13 12:37:30;;;;;;;2.83;0.60;;;;;;;8.31;75.95;100054.19;7395827;19;20015;-70
2023/01/13 12:40:24;;;;;;;4.63;1.42;;;;;;;8.35;77.27;100061.94;7397405;19;20086;-71
2023/01/13 12:45:46;;;;;;;1.88;0.52;;;;;;;8.40;78.53;100062.69;7397107;19;20397;-69